Kenny Billiot — WDG6408 — position and weather

sailwx.info

Track history (hours):
 
Tides and Currents Weather Stations Pressure Air Temp Water Temp Dewpoint Dewpoint Depression Visibility Wind Speed Wind Dir Waves Ship Positions

Kenny Billiot

Owner: Wood Resources LLC, Avondale, LA. More information available from US FCC via Universal Licensing System and Coast Guard Vessel Documentation Center.

Last reported at 2018-Jun-21 04:20 UTC. Time now 2018-Jun-21 19:57 UTC.
Position N 29°33' W 090°25'.

Length 21 m; draft 3 m.

Type: . MMSI: 367556670.

Date/timePositionNaut miles runAvg speedWind from/ knotsBaromVisibWave heightAir tempDewpointWater temp
2018-Jun-21 04:20N 29°33' W 090°25'3 4.7
2018-Jun-21 03:46N 29°33' W 090°28'1 4.9
2018-Jun-21 03:31N 29°34' W 090°30'2 4.8
2018-Jun-21 03:00N 29°34' W 090°32'2 4.1
2018-Jun-21 02:30N 29°34' W 090°35'2 4.2
2018-Jun-21 02:00N 29°35' W 090°37'2 4.5
2018-Jun-21 01:30N 29°36' W 090°39'2 4.2
2018-Jun-21 01:00N 29°37' W 090°41'1 2.7
2018-Jun-21 00:31N 29°36' W 090°43'2 4.1
2018-Jun-21 00:01N 29°34' W 090°44'1 2.9
2018-Jun-20 23:30N 29°33' W 090°45'0 0.1
2018-Jun-20 23:00N 29°33' W 090°45'0 0.4
2018-Jun-20 22:30N 29°33' W 090°45'0 0.0
2018-Jun-20 22:00N 29°33' W 090°45'0 0.2
2018-Jun-20 21:30N 29°33' W 090°45'1 2.3
2018-Jun-20 21:00N 29°32' W 090°46'3 5.1
2018-Jun-20 20:28N 29°32' W 090°49'59 2.5
2018-Jun-19 20:21N 29°51' W 091°54'1 3.6
2018-Jun-19 20:00N 29°51' W 091°56'2 3.9
2018-Jun-19 19:30N 29°50' W 091°58'2 3.9
2018-Jun-19 18:59N 29°50' W 092°00'2 3.3
2018-Jun-19 18:30N 29°49' W 092°02'2 3.7
2018-Jun-19 18:00N 29°48' W 092°04'2 3.8
2018-Jun-19 17:30N 29°48' W 092°06'2 3.7
2018-Jun-19 17:00N 29°47' W 092°08'2 4.8
2018-Jun-19 16:30N 29°47' W 092°11'2 3.4
2018-Jun-19 16:00N 29°47' W 092°12'0 0.3
2018-Jun-19 15:30N 29°47' W 092°13'1 2.6
2018-Jun-19 15:00N 29°48' W 092°14'0 0.7
2018-Jun-19 14:30N 29°48' W 092°14'0 0.0
2018-Jun-19 14:00N 29°48' W 092°14'0 0.0
2018-Jun-19 13:30N 29°48' W 092°14'1 1.2
2018-Jun-19 13:00N 29°48' W 092°15'0 0.0
2018-Jun-19 12:30N 29°48' W 092°15'0 0.0
2018-Jun-19 12:00N 29°48' W 092°15'0 0.0
2018-Jun-19 11:30N 29°48' W 092°15'1 2.5
2018-Jun-19 11:00N 29°49' W 092°16'0 0.3
2018-Jun-19 10:30N 29°49' W 092°16'0 0.0
2018-Jun-19 10:01N 29°49' W 092°16'0 0.0
2018-Jun-19 09:30N 29°49' W 092°16'0 0.0
2018-Jun-19 09:00N 29°49' W 092°16'1 1.0
2018-Jun-19 08:30N 29°49' W 092°17'0 0.1
2018-Jun-19 08:00N 29°49' W 092°17'0 0.0
2018-Jun-19 07:30N 29°49' W 092°17'0 0.0
2018-Jun-19 07:00N 29°49' W 092°17'0 0.0
2018-Jun-19 06:30N 29°49' W 092°17'0 0.0
2018-Jun-19 06:00N 29°49' W 092°17'1 1.9
2018-Jun-19 05:31N 29°50' W 092°18'0 0.0
2018-Jun-19 05:00N 29°50' W 092°18'0 0.0
2018-Jun-19 04:30N 29°50' W 092°18'0 0.0
2018-Jun-19 04:00N 29°50' W 092°18'0 0.0
2018-Jun-19 03:30N 29°50' W 092°18'0 0.1
2018-Jun-19 03:00N 29°50' W 092°18'0 0.2
2018-Jun-19 02:30N 29°50' W 092°18'1 1.2
2018-Jun-19 02:00N 29°50' W 092°18'1 1.8
2018-Jun-19 01:27N 29°50' W 092°19'0 0.0
2018-Jun-19 01:00N 29°50' W 092°19'0 0.3
2018-Jun-19 00:30N 29°50' W 092°20'2 3.9
2018-Jun-19 00:00N 29°51' W 092°22'39 2.8
2018-Jun-18 10:10N 29°56' W 093°06'1 4.3
2018-Jun-18 10:00N 29°56' W 093°07'2 4.3
2018-Jun-18 09:29N 29°56' W 093°10'2 3.3
2018-Jun-18 09:00N 29°57' W 093°11'2 4.2
2018-Jun-18 08:30N 29°59' W 093°12'2 4.1
2018-Jun-18 08:00N 30°01' W 093°14'1 2.4
2018-Jun-18 07:30N 30°02' W 093°14'1 1.4
2018-Jun-18 07:00N 30°02' W 093°15'1 2.9
2018-Jun-18 06:30N 30°03' W 093°16'2 3.3
2018-Jun-18 06:00N 30°05' W 093°17'1 1.8
2018-Jun-18 05:30N 30°05' W 093°18'1 1.6
2018-Jun-18 05:00N 30°06' W 093°18'0 0.2
2018-Jun-18 04:30N 30°06' W 093°18'0 0.0
2018-Jun-18 04:00N 30°06' W 093°18'0 0.0
2018-Jun-18 03:30N 30°06' W 093°18'0 0.0
2018-Jun-18 02:59N 30°06' W 093°18'0 0.0
2018-Jun-18 02:31N 30°06' W 093°18'0 0.0
2018-Jun-18 02:00N 30°06' W 093°18'0 0.1
2018-Jun-18 01:30N 30°06' W 093°18'0 0.0
2018-Jun-18 01:00N 30°06' W 093°18'0 0.0
2018-Jun-18 00:30N 30°06' W 093°18'0 0.0
2018-Jun-18 00:00N 30°06' W 093°18'0 0.0
2018-Jun-17 23:30N 30°06' W 093°18'0 0.0
2018-Jun-17 23:00N 30°06' W 093°18'0 0.0
2018-Jun-17 22:30N 30°06' W 093°18'0 0.0
2018-Jun-17 22:00N 30°06' W 093°18'0 0.0
2018-Jun-17 21:30N 30°06' W 093°18'0 0.0
2018-Jun-17 21:00N 30°06' W 093°18'0 0.0
2018-Jun-17 20:30N 30°06' W 093°18'1 1.1
2018-Jun-17 20:01N 30°06' W 093°19'2 3.4
2018-Jun-17 19:30N 30°05' W 093°20'1 2.7
2018-Jun-17 19:00N 30°04' W 093°21'1 2.2
2018-Jun-17 18:30N 30°04' W 093°22'1 1.4
2018-Jun-17 18:00N 30°04' W 093°23'0 0.3
2018-Jun-17 17:30N 30°04' W 093°23'1 1.4
2018-Jun-17 17:00N 30°04' W 093°24'1 1.5
2018-Jun-17 16:30N 30°04' W 093°25'1 1.0
2018-Jun-17 15:58N 30°04' W 093°26'0 0.0
2018-Jun-17 15:30N 30°04' W 093°26'0 0.0
2018-Jun-17 14:55N 30°04' W 093°26'0 0.3
2018-Jun-17 14:30N 30°04' W 093°26'1 1.1
2018-Jun-17 14:00N 30°04' W 093°26'0 0.1
2018-Jun-17 13:30N 30°04' W 093°26'1 1.7
2018-Jun-17 13:00N 30°04' W 093°27'1 2.1
2018-Jun-17 12:31N 30°04' W 093°29'1 1.3
2018-Jun-17 12:00N 30°04' W 093°29'0 0.0
2018-Jun-17 11:30N 30°04' W 093°29'0 0.0
2018-Jun-17 10:56N 30°04' W 093°29'0 0.1
2018-Jun-17 10:30N 30°04' W 093°29'0 0.7
2018-Jun-17 10:00N 30°04' W 093°30'2 3.0
2018-Jun-17 09:30N 30°04' W 093°32'2 3.9
2018-Jun-17 09:00N 30°04' W 093°34'2 3.8
2018-Jun-17 08:28N 30°04' W 093°36'2 3.8
2018-Jun-17 08:00N 30°04' W 093°38'2 3.9
2018-Jun-17 07:31N 30°03' W 093°40'2 3.7
2018-Jun-17 06:59N 30°03' W 093°43'2 3.7
2018-Jun-17 06:30N 30°02' W 093°44'2 3.7
2018-Jun-17 06:00N 30°01' W 093°46'2 3.9
2018-Jun-17 05:30N 29°59' W 093°47'2 4.8
2018-Jun-17 05:00N 29°59' W 093°50'2 3.2
2018-Jun-17 04:30N 29°59' W 093°52'2 4.6
2018-Jun-17 04:00N 29°59' W 093°54'0 0.7
2018-Jun-17 03:27N 29°59' W 093°55'0 0.0
2018-Jun-17 03:00N 29°60' W 093°55'0 0.5
2018-Jun-17 02:30N 29°60' W 093°55'0 0.1
2018-Jun-17 02:00N 29°60' W 093°55'0 0.1
2018-Jun-17 01:30N 29°60' W 093°55'0 0.1
2018-Jun-17 01:00N 29°60' W 093°55'1 1.6
2018-Jun-17 00:30N 29°60' W 093°56'2 3.5
2018-Jun-17 00:00N 30°00' W 093°57'2 3.1
2018-Jun-16 23:30N 30°01' W 093°59'2 4.1
2018-Jun-16 23:00N 30°01' W 094°01'0 0.4
2018-Jun-16 22:30N 30°01' W 094°02'0 0.0
2018-Jun-16 22:00N 30°01' W 094°02'0 0.0
2018-Jun-16 21:30N 30°01' W 094°02'0 0.0
2018-Jun-16 21:00N 30°01' W 094°02'0 0.0
2018-Jun-16 20:30N 30°01' W 094°02'0 0.0
2018-Jun-16 20:00N 30°01' W 094°02'0 0.0
2018-Jun-16 19:30N 30°01' W 094°02'0 0.0
2018-Jun-16 18:57N 30°01' W 094°02'0 0.0
2018-Jun-16 18:30N 30°01' W 094°02'0 0.0
2018-Jun-16 18:00N 30°01' W 094°02'0 0.0
2018-Jun-16 17:30N 30°01' W 094°02'0 0.0
2018-Jun-16 17:00N 30°01' W 094°02'0 0.0
2018-Jun-16 16:31N 30°01' W 094°02'0 0.0
2018-Jun-16 16:00N 30°01' W 094°02'0 0.0
2018-Jun-16 15:30N 30°01' W 094°02'0 0.0
2018-Jun-16 15:00N 30°01' W 094°02'0 0.0
2018-Jun-16 14:30N 30°01' W 094°02'0 0.0
2018-Jun-16 14:00N 30°01' W 094°02'0 0.0
2018-Jun-16 13:30N 30°01' W 094°02'0 0.0
2018-Jun-16 13:00N 30°01' W 094°02'0 0.0
2018-Jun-16 12:30N 30°01' W 094°02'0 0.0
2018-Jun-16 12:00N 30°01' W 094°02'0 0.0
2018-Jun-16 11:30N 30°01' W 094°02'0 0.0
2018-Jun-16 11:00N 30°01' W 094°02'0 0.0
2018-Jun-16 10:30N 30°01' W 094°02'0 0.0
2018-Jun-16 10:00N 30°01' W 094°02'0 0.0
2018-Jun-16 09:30N 30°01' W 094°02'0 0.0
2018-Jun-16 09:00N 30°01' W 094°02'0 0.0
2018-Jun-16 08:30N 30°01' W 094°02'0 0.0
2018-Jun-16 08:00N 30°01' W 094°02'0 0.0
2018-Jun-16 07:30N 30°01' W 094°02'0 0.3
2018-Jun-16 07:00N 30°01' W 094°01'0 0.3
2018-Jun-16 06:30N 30°01' W 094°02'0 0.1
2018-Jun-16 06:00N 30°01' W 094°02'0 0.3
2018-Jun-16 05:30N 30°01' W 094°01'0 0.0
2018-Jun-16 05:00N 30°01' W 094°01'0 0.4
2018-Jun-16 04:30N 30°01' W 094°02'0 0.0
2018-Jun-16 04:00N 30°01' W 094°02'0 0.0
2018-Jun-16 03:30N 30°01' W 094°02'0 0.0
2018-Jun-16 03:00N 30°01' W 094°02'0 0.0
2018-Jun-16 02:30N 30°01' W 094°02'0 0.0
2018-Jun-16 02:00N 30°01' W 094°02'0 0.0
2018-Jun-16 01:30N 30°01' W 094°02'0 0.0
2018-Jun-16 01:00N 30°01' W 094°02'0 0.0
2018-Jun-16 00:30N 30°01' W 094°02'0 0.0
2018-Jun-15 23:59N 30°01' W 094°02'0 0.0
2018-Jun-15 23:30N 30°01' W 094°02'0 0.0
2018-Jun-15 23:00N 30°01' W 094°02'0 0.0
2018-Jun-15 22:30N 30°01' W 094°02'0 0.0
2018-Jun-15 22:00N 30°01' W 094°02'0 0.0
2018-Jun-15 21:30N 30°01' W 094°02'0 0.0
2018-Jun-15 21:00N 30°01' W 094°02'0 0.0
2018-Jun-15 20:30N 30°01' W 094°02'0 0.0
2018-Jun-15 20:00N 30°01' W 094°02'0 0.0
2018-Jun-15 19:26N 30°01' W 094°02'0 0.0
2018-Jun-15 19:00N 30°01' W 094°02'0 0.0
2018-Jun-15 18:30N 30°01' W 094°02'0 0.0
2018-Jun-15 18:01N 30°01' W 094°02'0 0.0
2018-Jun-15 17:30N 30°01' W 094°02'0 0.0
2018-Jun-15 17:00N 30°01' W 094°02'0 0.0
2018-Jun-15 16:30N 30°01' W 094°02'0 0.0
2018-Jun-15 16:00N 30°01' W 094°02'0 0.0
2018-Jun-15 15:30N 30°01' W 094°02'0 0.0
2018-Jun-15 15:00N 30°01' W 094°02'0 0.0
2018-Jun-15 14:30N 30°01' W 094°02'0 0.0
2018-Jun-15 14:00N 30°01' W 094°02'0 0.0
2018-Jun-15 13:30N 30°01' W 094°02'0 0.0
2018-Jun-15 13:00N 30°01' W 094°02'1 1.5
2018-Jun-15 12:30N 30°01' W 094°01'3 6.0
2018-Jun-15 12:00N 30°01' W 093°57'2 4.0
2018-Jun-15 11:30N 29°60' W 093°55'0 0.2
2018-Jun-15 11:00N 29°60' W 093°55'0 0.2
2018-Jun-15 10:30N 29°60' W 093°55'0 0.6
2018-Jun-15 10:00N 29°59' W 093°55'3 6.0
2018-Jun-15 09:30N 29°59' W 093°52'3 5.2
2018-Jun-15 09:00N 29°59' W 093°49'3 6.1
2018-Jun-15 08:30N 30°00' W 093°46'2 4.6
2018-Jun-15 08:00N 30°02' W 093°44'3 4.9
2018-Jun-15 07:29N 30°04' W 093°42'3 6.1
2018-Jun-15 07:00N 30°04' W 093°38'3 5.7
2018-Jun-15 06:29N 30°04' W 093°35'3 5.3
2018-Jun-15 06:00N 30°04' W 093°32'3 5.3
2018-Jun-15 05:31N 30°04' W 093°29'3 5.2
2018-Jun-15 05:00N 30°04' W 093°26'2 4.9
2018-Jun-15 04:30N 30°04' W 093°23'2 4.0
2018-Jun-15 04:00N 30°04' W 093°21'2 3.8
2018-Jun-15 03:30N 30°05' W 093°20'1 3.0
2018-Jun-15 03:00N 30°05' W 093°18'1 2.3
2018-Jun-15 02:30N 30°05' W 093°17'0 0.7
2018-Jun-15 02:00N 30°05' W 093°16'0 0.0
2018-Jun-15 01:30N 30°05' W 093°16'0 0.1
2018-Jun-15 01:00N 30°05' W 093°17'0 0.0
2018-Jun-15 00:30N 30°05' W 093°17'0 0.0
2018-Jun-15 00:00N 30°05' W 093°17'0 0.0
2018-Jun-14 23:30N 30°05' W 093°17'0 0.0
2018-Jun-14 23:00N 30°05' W 093°17'0 0.0
2018-Jun-14 22:30N 30°05' W 093°17'0 0.0
2018-Jun-14 22:00N 30°05' W 093°17'0 0.0
2018-Jun-14 21:30N 30°05' W 093°17'0 0.0
2018-Jun-14 21:00N 30°05' W 093°17'0 0.0
2018-Jun-14 20:30N 30°05' W 093°17'0 0.0
2018-Jun-14 20:00N 30°05' W 093°17'0 0.0
2018-Jun-14 19:30N 30°05' W 093°17'0 0.0
2018-Jun-14 19:00N 30°05' W 093°17'0 0.0
2018-Jun-14 18:30N 30°05' W 093°17'0 0.0
2018-Jun-14 18:00N 30°05' W 093°17'0 0.0
2018-Jun-14 17:30N 30°05' W 093°17'0 0.0
2018-Jun-14 17:01N 30°05' W 093°17'0 0.0
2018-Jun-14 16:30N 30°05' W 093°17'0 0.0
2018-Jun-14 16:00N 30°05' W 093°17'0 0.0
2018-Jun-14 15:30N 30°05' W 093°17'0 0.0
2018-Jun-14 15:00N 30°05' W 093°17'0 0.0
2018-Jun-14 14:30N 30°05' W 093°17'0 0.0
2018-Jun-14 14:00N 30°05' W 093°17'0 0.0
2018-Jun-14 13:30N 30°05' W 093°17'0 0.0
2018-Jun-14 13:00N 30°05' W 093°17'0 0.0
2018-Jun-14 12:30N 30°05' W 093°17'0 0.0
2018-Jun-14 12:00N 30°05' W 093°17'0 0.0
2018-Jun-14 11:30N 30°05' W 093°17'0 0.0
2018-Jun-14 11:00N 30°05' W 093°17'0 0.0
2018-Jun-14 10:27N 30°05' W 093°17'0 0.0
2018-Jun-14 10:00N 30°05' W 093°17'0 0.0
2018-Jun-14 09:30N 30°05' W 093°17'0 0.0
2018-Jun-14 08:59N 30°05' W 093°17'0 0.0
2018-Jun-14 08:30N 30°05' W 093°17'0 0.8
2018-Jun-14 08:00N 30°04' W 093°16'0 0.8
2018-Jun-14 07:30N 30°04' W 093°16'0 1.0
2018-Jun-14 07:00N 30°03' W 093°16'1 2.8
2018-Jun-14 06:30N 30°02' W 093°15'1 1.9
2018-Jun-14 06:00N 30°02' W 093°14'0 0.0
2018-Jun-14 05:30N 30°02' W 093°14'0 0.0
2018-Jun-14 05:00N 30°02' W 093°14'0 0.0
2018-Jun-14 04:30N 30°02' W 093°14'0 0.0
2018-Jun-14 04:00N 30°02' W 093°14'0 0.0
2018-Jun-14 03:30N 30°02' W 093°14'0 0.0
2018-Jun-14 03:00N 30°02' W 093°14'0 0.0
2018-Jun-14 02:30N 30°02' W 093°14'0 0.0
2018-Jun-14 02:00N 30°02' W 093°14'0 0.0
2018-Jun-14 01:30N 30°02' W 093°14'0 0.0
2018-Jun-14 01:00N 30°02' W 093°14'0 0.0
2018-Jun-14 00:30N 30°02' W 093°14'0 0.0
2018-Jun-14 00:00N 30°02' W 093°14'1 3.0
2018-Jun-13 23:30N 30°00' W 093°14'1 2.5
2018-Jun-13 23:00N 29°59' W 093°13'1 2.2
2018-Jun-13 22:31N 29°58' W 093°12'0 0.0
2018-Jun-13 22:00N 29°58' W 093°12'0 0.1
2018-Jun-13 21:30N 29°58' W 093°12'0 0.0
2018-Jun-13 21:00N 29°58' W 093°12'0 0.0
2018-Jun-13 20:30N 29°58' W 093°12'0 0.0
2018-Jun-13 20:00N 29°58' W 093°12'0 0.0
2018-Jun-13 19:30N 29°58' W 093°12'0 0.0
2018-Jun-13 19:00N 29°58' W 093°12'0 0.0
2018-Jun-13 18:30N 29°58' W 093°12'0 0.0
2018-Jun-13 18:00N 29°58' W 093°12'0 0.0
2018-Jun-13 17:30N 29°58' W 093°12'0 0.0
2018-Jun-13 17:00N 29°58' W 093°12'0 0.0
2018-Jun-13 16:30N 29°58' W 093°12'0 0.0
2018-Jun-13 16:00N 29°58' W 093°12'1 1.0
2018-Jun-13 15:30N 29°58' W 093°11'3 5.4
2018-Jun-13 15:00N 29°56' W 093°09'4 0.9
2018-Jun-13 10:43N 29°56' W 093°05'37 3.5
2018-Jun-13 00:17N 29°52' W 092°23'2 5.0
2018-Jun-12 23:58N 29°51' W 092°22'2 4.7
2018-Jun-12 23:30N 29°50' W 092°19'2 4.9
2018-Jun-12 23:00N 29°49' W 092°17'3 5.6
2018-Jun-12 22:30N 29°48' W 092°14'2 3.4
2018-Jun-12 21:59N 29°47' W 092°12'1 2.3
2018-Jun-12 21:30N 29°47' W 092°11'0 0.5
2018-Jun-12 21:00N 29°47' W 092°11'0 0.0
2018-Jun-12 20:30N 29°47' W 092°11'0 0.0
2018-Jun-12 20:00N 29°47' W 092°11'0 0.0
2018-Jun-12 19:31N 29°47' W 092°11'1 1.7
2018-Jun-12 19:00N 29°47' W 092°10'3 5.8
2018-Jun-12 18:30N 29°48' W 092°07'3 5.4
2018-Jun-12 18:00N 29°48' W 092°04'58 3.7
2018-Jun-12 02:26N 29°36' W 090°58'3 5.0
2018-Jun-12 01:55N 29°34' W 090°56'3 5.3
2018-Jun-12 01:25N 29°33' W 090°54'2 5.1
2018-Jun-12 01:00N 29°32' W 090°51'3 5.2
2018-Jun-12 00:30N 29°32' W 090°48'2 4.4
2018-Jun-12 00:00N 29°32' W 090°46'2 4.2
2018-Jun-11 23:30N 29°34' W 090°44'1 2.6
2018-Jun-11 23:00N 29°35' W 090°43'2 3.5
2018-Jun-11 22:30N 29°36' W 090°43'1 1.9
2018-Jun-11 22:00N 29°37' W 090°42'0 0.0
2018-Jun-11 21:29N 29°37' W 090°42'0 0.0
2018-Jun-11 21:00N 29°37' W 090°42'0 0.0
2018-Jun-11 20:30N 29°37' W 090°42'1 1.2
2018-Jun-11 20:01N 29°36' W 090°41'2 4.4
2018-Jun-11 19:30N 29°35' W 090°39'2 3.1
2018-Jun-11 18:59N 29°35' W 090°37'2 4.8
2018-Jun-11 18:30N 29°34' W 090°34'0 0.6
2018-Jun-11 18:01N 29°34' W 090°34'0 0.0
2018-Jun-11 17:30N 29°34' W 090°34'  
Track history (hours):
 
Tides and Currents Weather Stations Pressure Air Temp Water Temp Dewpoint Dewpoint Depression Visibility Wind Speed Wind Dir Waves Ship Positions

Kenny Billiot

Owner: Wood Resources LLC, Avondale, LA. More information available from US FCC via Universal Licensing System and Coast Guard Vessel Documentation Center.

Last reported at 2018-Jun-21 04:20 UTC. Time now 2018-Jun-21 19:57 UTC.
Position N 29°33' W 090°25'.

Length 21 m; draft 3 m.

Type: . MMSI: 367556670.

Date/timePositionNaut miles runAvg speedWind from/ knotsBaromVisibWave heightAir tempDewpointWater temp
2018-Jun-21 04:20N 29°33' W 090°25'3 4.7
2018-Jun-21 03:46N 29°33' W 090°28'1 4.9
2018-Jun-21 03:31N 29°34' W 090°30'2 4.8
2018-Jun-21 03:00N 29°34' W 090°32'2 4.1
2018-Jun-21 02:30N 29°34' W 090°35'2 4.2
2018-Jun-21 02:00N 29°35' W 090°37'2 4.5
2018-Jun-21 01:30N 29°36' W 090°39'2 4.2
2018-Jun-21 01:00N 29°37' W 090°41'1 2.7
2018-Jun-21 00:31N 29°36' W 090°43'2 4.1
2018-Jun-21 00:01N 29°34' W 090°44'1 2.9
2018-Jun-20 23:30N 29°33' W 090°45'0 0.1
2018-Jun-20 23:00N 29°33' W 090°45'0 0.4
2018-Jun-20 22:30N 29°33' W 090°45'0 0.0
2018-Jun-20 22:00N 29°33' W 090°45'0 0.2
2018-Jun-20 21:30N 29°33' W 090°45'1 2.3
2018-Jun-20 21:00N 29°32' W 090°46'3 5.1
2018-Jun-20 20:28N 29°32' W 090°49'59 2.5
2018-Jun-19 20:21N 29°51' W 091°54'1 3.6
2018-Jun-19 20:00N 29°51' W 091°56'2 3.9
2018-Jun-19 19:30N 29°50' W 091°58'2 3.9
2018-Jun-19 18:59N 29°50' W 092°00'2 3.3
2018-Jun-19 18:30N 29°49' W 092°02'2 3.7
2018-Jun-19 18:00N 29°48' W 092°04'2 3.8
2018-Jun-19 17:30N 29°48' W 092°06'2 3.7
2018-Jun-19 17:00N 29°47' W 092°08'2 4.8
2018-Jun-19 16:30N 29°47' W 092°11'2 3.4
2018-Jun-19 16:00N 29°47' W 092°12'0 0.3
2018-Jun-19 15:30N 29°47' W 092°13'1 2.6
2018-Jun-19 15:00N 29°48' W 092°14'0 0.7
2018-Jun-19 14:30N 29°48' W 092°14'0 0.0
2018-Jun-19 14:00N 29°48' W 092°14'0 0.0
2018-Jun-19 13:30N 29°48' W 092°14'1 1.2
2018-Jun-19 13:00N 29°48' W 092°15'0 0.0
2018-Jun-19 12:30N 29°48' W 092°15'0 0.0
2018-Jun-19 12:00N 29°48' W 092°15'0 0.0
2018-Jun-19 11:30N 29°48' W 092°15'1 2.5
2018-Jun-19 11:00N 29°49' W 092°16'0 0.3
2018-Jun-19 10:30N 29°49' W 092°16'0 0.0
2018-Jun-19 10:01N 29°49' W 092°16'0 0.0
2018-Jun-19 09:30N 29°49' W 092°16'0 0.0
2018-Jun-19 09:00N 29°49' W 092°16'1 1.0
2018-Jun-19 08:30N 29°49' W 092°17'0 0.1
2018-Jun-19 08:00N 29°49' W 092°17'0 0.0
2018-Jun-19 07:30N 29°49' W 092°17'0 0.0
2018-Jun-19 07:00N 29°49' W 092°17'0 0.0
2018-Jun-19 06:30N 29°49' W 092°17'0 0.0
2018-Jun-19 06:00N 29°49' W 092°17'1 1.9
2018-Jun-19 05:31N 29°50' W 092°18'0 0.0
2018-Jun-19 05:00N 29°50' W 092°18'0 0.0
2018-Jun-19 04:30N 29°50' W 092°18'0 0.0
2018-Jun-19 04:00N 29°50' W 092°18'0 0.0
2018-Jun-19 03:30N 29°50' W 092°18'0 0.1
2018-Jun-19 03:00N 29°50' W 092°18'0 0.2
2018-Jun-19 02:30N 29°50' W 092°18'1 1.2
2018-Jun-19 02:00N 29°50' W 092°18'1 1.8
2018-Jun-19 01:27N 29°50' W 092°19'0 0.0
2018-Jun-19 01:00N 29°50' W 092°19'0 0.3
2018-Jun-19 00:30N 29°50' W 092°20'2 3.9
2018-Jun-19 00:00N 29°51' W 092°22'39 2.8
2018-Jun-18 10:10N 29°56' W 093°06'1 4.3
2018-Jun-18 10:00N 29°56' W 093°07'2 4.3
2018-Jun-18 09:29N 29°56' W 093°10'2 3.3
2018-Jun-18 09:00N 29°57' W 093°11'2 4.2
2018-Jun-18 08:30N 29°59' W 093°12'2 4.1
2018-Jun-18 08:00N 30°01' W 093°14'1 2.4
2018-Jun-18 07:30N 30°02' W 093°14'1 1.4
2018-Jun-18 07:00N 30°02' W 093°15'1 2.9
2018-Jun-18 06:30N 30°03' W 093°16'2 3.3
2018-Jun-18 06:00N 30°05' W 093°17'1 1.8
2018-Jun-18 05:30N 30°05' W 093°18'1 1.6
2018-Jun-18 05:00N 30°06' W 093°18'0 0.2
2018-Jun-18 04:30N 30°06' W 093°18'0 0.0
2018-Jun-18 04:00N 30°06' W 093°18'0 0.0
2018-Jun-18 03:30N 30°06' W 093°18'0 0.0
2018-Jun-18 02:59N 30°06' W 093°18'0 0.0
2018-Jun-18 02:31N 30°06' W 093°18'0 0.0
2018-Jun-18 02:00N 30°06' W 093°18'0 0.1
2018-Jun-18 01:30N 30°06' W 093°18'0 0.0
2018-Jun-18 01:00N 30°06' W 093°18'0 0.0
2018-Jun-18 00:30N 30°06' W 093°18'0 0.0
2018-Jun-18 00:00N 30°06' W 093°18'0 0.0
2018-Jun-17 23:30N 30°06' W 093°18'0 0.0
2018-Jun-17 23:00N 30°06' W 093°18'0 0.0
2018-Jun-17 22:30N 30°06' W 093°18'0 0.0
2018-Jun-17 22:00N 30°06' W 093°18'0 0.0
2018-Jun-17 21:30N 30°06' W 093°18'0 0.0
2018-Jun-17 21:00N 30°06' W 093°18'0 0.0
2018-Jun-17 20:30N 30°06' W 093°18'1 1.1
2018-Jun-17 20:01N 30°06' W 093°19'2 3.4
2018-Jun-17 19:30N 30°05' W 093°20'1 2.7
2018-Jun-17 19:00N 30°04' W 093°21'1 2.2
2018-Jun-17 18:30N 30°04' W 093°22'1 1.4
2018-Jun-17 18:00N 30°04' W 093°23'0 0.3
2018-Jun-17 17:30N 30°04' W 093°23'1 1.4
2018-Jun-17 17:00N 30°04' W 093°24'1 1.5
2018-Jun-17 16:30N 30°04' W 093°25'1 1.0
2018-Jun-17 15:58N 30°04' W 093°26'0 0.0
2018-Jun-17 15:30N 30°04' W 093°26'0 0.0
2018-Jun-17 14:55N 30°04' W 093°26'0 0.3
2018-Jun-17 14:30N 30°04' W 093°26'1 1.1
2018-Jun-17 14:00N 30°04' W 093°26'0 0.1
2018-Jun-17 13:30N 30°04' W 093°26'1 1.7
2018-Jun-17 13:00N 30°04' W 093°27'1 2.1
2018-Jun-17 12:31N 30°04' W 093°29'1 1.3
2018-Jun-17 12:00N 30°04' W 093°29'0 0.0
2018-Jun-17 11:30N 30°04' W 093°29'0 0.0
2018-Jun-17 10:56N 30°04' W 093°29'0 0.1
2018-Jun-17 10:30N 30°04' W 093°29'0 0.7
2018-Jun-17 10:00N 30°04' W 093°30'2 3.0
2018-Jun-17 09:30N 30°04' W 093°32'2 3.9
2018-Jun-17 09:00N 30°04' W 093°34'2 3.8
2018-Jun-17 08:28N 30°04' W 093°36'2 3.8
2018-Jun-17 08:00N 30°04' W 093°38'2 3.9
2018-Jun-17 07:31N 30°03' W 093°40'2 3.7
2018-Jun-17 06:59N 30°03' W 093°43'2 3.7
2018-Jun-17 06:30N 30°02' W 093°44'2 3.7
2018-Jun-17 06:00N 30°01' W 093°46'2 3.9
2018-Jun-17 05:30N 29°59' W 093°47'2 4.8
2018-Jun-17 05:00N 29°59' W 093°50'2 3.2
2018-Jun-17 04:30N 29°59' W 093°52'2 4.6
2018-Jun-17 04:00N 29°59' W 093°54'0 0.7
2018-Jun-17 03:27N 29°59' W 093°55'0 0.0
2018-Jun-17 03:00N 29°60' W 093°55'0 0.5
2018-Jun-17 02:30N 29°60' W 093°55'0 0.1
2018-Jun-17 02:00N 29°60' W 093°55'0 0.1
2018-Jun-17 01:30N 29°60' W 093°55'0 0.1
2018-Jun-17 01:00N 29°60' W 093°55'1 1.6
2018-Jun-17 00:30N 29°60' W 093°56'2 3.5
2018-Jun-17 00:00N 30°00' W 093°57'2 3.1
2018-Jun-16 23:30N 30°01' W 093°59'2 4.1
2018-Jun-16 23:00N 30°01' W 094°01'0 0.4
2018-Jun-16 22:30N 30°01' W 094°02'0 0.0
2018-Jun-16 22:00N 30°01' W 094°02'0 0.0
2018-Jun-16 21:30N 30°01' W 094°02'0 0.0
2018-Jun-16 21:00N 30°01' W 094°02'0 0.0
2018-Jun-16 20:30N 30°01' W 094°02'0 0.0
2018-Jun-16 20:00N 30°01' W 094°02'0 0.0
2018-Jun-16 19:30N 30°01' W 094°02'0 0.0
2018-Jun-16 18:57N 30°01' W 094°02'0 0.0
2018-Jun-16 18:30N 30°01' W 094°02'0 0.0
2018-Jun-16 18:00N 30°01' W 094°02'0 0.0
2018-Jun-16 17:30N 30°01' W 094°02'0 0.0
2018-Jun-16 17:00N 30°01' W 094°02'0 0.0
2018-Jun-16 16:31N 30°01' W 094°02'0 0.0
2018-Jun-16 16:00N 30°01' W 094°02'0 0.0
2018-Jun-16 15:30N 30°01' W 094°02'0 0.0
2018-Jun-16 15:00N 30°01' W 094°02'0 0.0
2018-Jun-16 14:30N 30°01' W 094°02'0 0.0
2018-Jun-16 14:00N 30°01' W 094°02'0 0.0
2018-Jun-16 13:30N 30°01' W 094°02'0 0.0
2018-Jun-16 13:00N 30°01' W 094°02'0 0.0
2018-Jun-16 12:30N 30°01' W 094°02'0 0.0
2018-Jun-16 12:00N 30°01' W 094°02'0 0.0
2018-Jun-16 11:30N 30°01' W 094°02'0 0.0
2018-Jun-16 11:00N 30°01' W 094°02'0 0.0
2018-Jun-16 10:30N 30°01' W 094°02'0 0.0
2018-Jun-16 10:00N 30°01' W 094°02'0 0.0
2018-Jun-16 09:30N 30°01' W 094°02'0 0.0
2018-Jun-16 09:00N 30°01' W 094°02'0 0.0
2018-Jun-16 08:30N 30°01' W 094°02'0 0.0
2018-Jun-16 08:00N 30°01' W 094°02'0 0.0
2018-Jun-16 07:30N 30°01' W 094°02'0 0.3
2018-Jun-16 07:00N 30°01' W 094°01'0 0.3
2018-Jun-16 06:30N 30°01' W 094°02'0 0.1
2018-Jun-16 06:00N 30°01' W 094°02'0 0.3
2018-Jun-16 05:30N 30°01' W 094°01'0 0.0
2018-Jun-16 05:00N 30°01' W 094°01'0 0.4
2018-Jun-16 04:30N 30°01' W 094°02'0 0.0
2018-Jun-16 04:00N 30°01' W 094°02'0 0.0
2018-Jun-16 03:30N 30°01' W 094°02'0 0.0
2018-Jun-16 03:00N 30°01' W 094°02'0 0.0
2018-Jun-16 02:30N 30°01' W 094°02'0 0.0
2018-Jun-16 02:00N 30°01' W 094°02'0 0.0
2018-Jun-16 01:30N 30°01' W 094°02'0 0.0
2018-Jun-16 01:00N 30°01' W 094°02'0 0.0
2018-Jun-16 00:30N 30°01' W 094°02'0 0.0
2018-Jun-15 23:59N 30°01' W 094°02'0 0.0
2018-Jun-15 23:30N 30°01' W 094°02'0 0.0
2018-Jun-15 23:00N 30°01' W 094°02'0 0.0
2018-Jun-15 22:30N 30°01' W 094°02'0 0.0
2018-Jun-15 22:00N 30°01' W 094°02'0 0.0
2018-Jun-15 21:30N 30°01' W 094°02'0 0.0
2018-Jun-15 21:00N 30°01' W 094°02'0 0.0
2018-Jun-15 20:30N 30°01' W 094°02'0 0.0
2018-Jun-15 20:00N 30°01' W 094°02'0 0.0
2018-Jun-15 19:26N 30°01' W 094°02'0 0.0
2018-Jun-15 19:00N 30°01' W 094°02'0 0.0
2018-Jun-15 18:30N 30°01' W 094°02'0 0.0
2018-Jun-15 18:01N 30°01' W 094°02'0 0.0
2018-Jun-15 17:30N 30°01' W 094°02'0 0.0
2018-Jun-15 17:00N 30°01' W 094°02'0 0.0
2018-Jun-15 16:30N 30°01' W 094°02'0 0.0
2018-Jun-15 16:00N 30°01' W 094°02'0 0.0
2018-Jun-15 15:30N 30°01' W 094°02'0 0.0
2018-Jun-15 15:00N 30°01' W 094°02'0 0.0
2018-Jun-15 14:30N 30°01' W 094°02'0 0.0
2018-Jun-15 14:00N 30°01' W 094°02'0 0.0
2018-Jun-15 13:30N 30°01' W 094°02'0 0.0
2018-Jun-15 13:00N 30°01' W 094°02'1 1.5
2018-Jun-15 12:30N 30°01' W 094°01'3 6.0
2018-Jun-15 12:00N 30°01' W 093°57'2 4.0
2018-Jun-15 11:30N 29°60' W 093°55'0 0.2
2018-Jun-15 11:00N 29°60' W 093°55'0 0.2
2018-Jun-15 10:30N 29°60' W 093°55'0 0.6
2018-Jun-15 10:00N 29°59' W 093°55'3 6.0
2018-Jun-15 09:30N 29°59' W 093°52'3 5.2
2018-Jun-15 09:00N 29°59' W 093°49'3 6.1
2018-Jun-15 08:30N 30°00' W 093°46'2 4.6
2018-Jun-15 08:00N 30°02' W 093°44'3 4.9
2018-Jun-15 07:29N 30°04' W 093°42'3 6.1
2018-Jun-15 07:00N 30°04' W 093°38'3 5.7
2018-Jun-15 06:29N 30°04' W 093°35'3 5.3
2018-Jun-15 06:00N 30°04' W 093°32'3 5.3
2018-Jun-15 05:31N 30°04' W 093°29'3 5.2
2018-Jun-15 05:00N 30°04' W 093°26'2 4.9
2018-Jun-15 04:30N 30°04' W 093°23'2 4.0
2018-Jun-15 04:00N 30°04' W 093°21'2 3.8
2018-Jun-15 03:30N 30°05' W 093°20'1 3.0
2018-Jun-15 03:00N 30°05' W 093°18'1 2.3
2018-Jun-15 02:30N 30°05' W 093°17'0 0.7
2018-Jun-15 02:00N 30°05' W 093°16'0 0.0
2018-Jun-15 01:30N 30°05' W 093°16'0 0.1
2018-Jun-15 01:00N 30°05' W 093°17'0 0.0
2018-Jun-15 00:30N 30°05' W 093°17'0 0.0
2018-Jun-15 00:00N 30°05' W 093°17'0 0.0
2018-Jun-14 23:30N 30°05' W 093°17'0 0.0
2018-Jun-14 23:00N 30°05' W 093°17'0 0.0
2018-Jun-14 22:30N 30°05' W 093°17'0 0.0
2018-Jun-14 22:00N 30°05' W 093°17'0 0.0
2018-Jun-14 21:30N 30°05' W 093°17'0 0.0
2018-Jun-14 21:00N 30°05' W 093°17'0 0.0
2018-Jun-14 20:30N 30°05' W 093°17'0 0.0
2018-Jun-14 20:00N 30°05' W 093°17'0 0.0
2018-Jun-14 19:30N 30°05' W 093°17'0 0.0
2018-Jun-14 19:00N 30°05' W 093°17'0 0.0
2018-Jun-14 18:30N 30°05' W 093°17'0 0.0
2018-Jun-14 18:00N 30°05' W 093°17'0 0.0
2018-Jun-14 17:30N 30°05' W 093°17'0 0.0
2018-Jun-14 17:01N 30°05' W 093°17'0 0.0
2018-Jun-14 16:30N 30°05' W 093°17'0 0.0
2018-Jun-14 16:00N 30°05' W 093°17'0 0.0
2018-Jun-14 15:30N 30°05' W 093°17'0 0.0
2018-Jun-14 15:00N 30°05' W 093°17'0 0.0
2018-Jun-14 14:30N 30°05' W 093°17'0 0.0
2018-Jun-14 14:00N 30°05' W 093°17'0 0.0
2018-Jun-14 13:30N 30°05' W 093°17'0 0.0
2018-Jun-14 13:00N 30°05' W 093°17'0 0.0
2018-Jun-14 12:30N 30°05' W 093°17'0 0.0
2018-Jun-14 12:00N 30°05' W 093°17'0 0.0
2018-Jun-14 11:30N 30°05' W 093°17'0 0.0
2018-Jun-14 11:00N 30°05' W 093°17'0 0.0
2018-Jun-14 10:27N 30°05' W 093°17'0 0.0
2018-Jun-14 10:00N 30°05' W 093°17'0 0.0
2018-Jun-14 09:30N 30°05' W 093°17'0 0.0
2018-Jun-14 08:59N 30°05' W 093°17'0 0.0
2018-Jun-14 08:30N 30°05' W 093°17'0 0.8
2018-Jun-14 08:00N 30°04' W 093°16'0 0.8
2018-Jun-14 07:30N 30°04' W 093°16'0 1.0
2018-Jun-14 07:00N 30°03' W 093°16'1 2.8
2018-Jun-14 06:30N 30°02' W 093°15'1 1.9
2018-Jun-14 06:00N 30°02' W 093°14'0 0.0
2018-Jun-14 05:30N 30°02' W 093°14'0 0.0
2018-Jun-14 05:00N 30°02' W 093°14'0 0.0
2018-Jun-14 04:30N 30°02' W 093°14'0 0.0
2018-Jun-14 04:00N 30°02' W 093°14'0 0.0
2018-Jun-14 03:30N 30°02' W 093°14'0 0.0
2018-Jun-14 03:00N 30°02' W 093°14'0 0.0
2018-Jun-14 02:30N 30°02' W 093°14'0 0.0
2018-Jun-14 02:00N 30°02' W 093°14'0 0.0
2018-Jun-14 01:30N 30°02' W 093°14'0 0.0
2018-Jun-14 01:00N 30°02' W 093°14'0 0.0
2018-Jun-14 00:30N 30°02' W 093°14'0 0.0
2018-Jun-14 00:00N 30°02' W 093°14'1 3.0
2018-Jun-13 23:30N 30°00' W 093°14'1 2.5
2018-Jun-13 23:00N 29°59' W 093°13'1 2.2
2018-Jun-13 22:31N 29°58' W 093°12'0 0.0
2018-Jun-13 22:00N 29°58' W 093°12'0 0.1
2018-Jun-13 21:30N 29°58' W 093°12'0 0.0
2018-Jun-13 21:00N 29°58' W 093°12'0 0.0
2018-Jun-13 20:30N 29°58' W 093°12'0 0.0
2018-Jun-13 20:00N 29°58' W 093°12'0 0.0
2018-Jun-13 19:30N 29°58' W 093°12'0 0.0
2018-Jun-13 19:00N 29°58' W 093°12'0 0.0
2018-Jun-13 18:30N 29°58' W 093°12'0 0.0
2018-Jun-13 18:00N 29°58' W 093°12'0 0.0
2018-Jun-13 17:30N 29°58' W 093°12'0 0.0
2018-Jun-13 17:00N 29°58' W 093°12'0 0.0
2018-Jun-13 16:30N 29°58' W 093°12'0 0.0
2018-Jun-13 16:00N 29°58' W 093°12'1 1.0
2018-Jun-13 15:30N 29°58' W 093°11'3 5.4
2018-Jun-13 15:00N 29°56' W 093°09'4 0.9
2018-Jun-13 10:43N 29°56' W 093°05'37 3.5
2018-Jun-13 00:17N 29°52' W 092°23'2 5.0
2018-Jun-12 23:58N 29°51' W 092°22'2 4.7
2018-Jun-12 23:30N 29°50' W 092°19'2 4.9
2018-Jun-12 23:00N 29°49' W 092°17'3 5.6
2018-Jun-12 22:30N 29°48' W 092°14'2 3.4
2018-Jun-12 21:59N 29°47' W 092°12'1 2.3
2018-Jun-12 21:30N 29°47' W 092°11'0 0.5
2018-Jun-12 21:00N 29°47' W 092°11'0 0.0
2018-Jun-12 20:30N 29°47' W 092°11'0 0.0
2018-Jun-12 20:00N 29°47' W 092°11'0 0.0
2018-Jun-12 19:31N 29°47' W 092°11'1 1.7
2018-Jun-12 19:00N 29°47' W 092°10'3 5.8
2018-Jun-12 18:30N 29°48' W 092°07'3 5.4
2018-Jun-12 18:00N 29°48' W 092°04'58 3.7
2018-Jun-12 02:26N 29°36' W 090°58'3 5.0
2018-Jun-12 01:55N 29°34' W 090°56'3 5.3
2018-Jun-12 01:25N 29°33' W 090°54'2 5.1
2018-Jun-12 01:00N 29°32' W 090°51'3 5.2
2018-Jun-12 00:30N 29°32' W 090°48'2 4.4
2018-Jun-12 00:00N 29°32' W 090°46'2 4.2
2018-Jun-11 23:30N 29°34' W 090°44'1 2.6
2018-Jun-11 23:00N 29°35' W 090°43'2 3.5
2018-Jun-11 22:30N 29°36' W 090°43'1 1.9
2018-Jun-11 22:00N 29°37' W 090°42'0 0.0
2018-Jun-11 21:29N 29°37' W 090°42'0 0.0
2018-Jun-11 21:00N 29°37' W 090°42'0 0.0
2018-Jun-11 20:30N 29°37' W 090°42'1 1.2
2018-Jun-11 20:01N 29°36' W 090°41'2 4.4
2018-Jun-11 19:30N 29°35' W 090°39'2 3.1
2018-Jun-11 18:59N 29°35' W 090°37'2 4.8
2018-Jun-11 18:30N 29°34' W 090°34'0 0.6
2018-Jun-11 18:01N 29°34' W 090°34'0 0.0
2018-Jun-11 17:30N 29°34' W 090°34'  

Dump ship's entire track history